createdAt,value
2022-08-26T00:01:54.388Z,11.98
2022-08-26T00:04:25.477Z,10.32
2022-08-26T00:06:53.473Z,11.02
2022-08-26T00:09:20.453Z,9.40
2022-08-26T00:11:47.346Z,16.27
2022-08-26T00:14:15.134Z,20.95
2022-08-26T00:16:47.165Z,23.15
2022-08-26T00:19:19.287Z,14.90
2022-08-26T00:21:48.550Z,15.73
2022-08-26T00:24:16.255Z,15.68
2022-08-26T00:26:43.383Z,12.25
2022-08-26T00:29:10.180Z,12.73
2022-08-26T00:31:37.395Z,13.27
2022-08-26T00:34:04.117Z,9.82
2022-08-26T00:36:31.244Z,12.73
2022-08-26T00:38:58.400Z,13.38
2022-08-26T00:41:25.362Z,11.02
2022-08-26T00:43:53.002Z,8.75
2022-08-26T00:46:28.962Z,9.90
2022-08-26T00:49:04.080Z,10.82
2022-08-26T00:51:53.441Z,12.95
2022-08-26T00:54:23.164Z,13.15
2022-08-26T00:57:02.545Z,14.05
2022-08-26T00:59:32.999Z,11.70
2022-08-26T01:02:02.910Z,8.98
2022-08-26T01:04:31.468Z,12.18
2022-08-26T01:06:59.275Z,11.88
2022-08-26T01:09:26.426Z,9.50
2022-08-26T01:11:56.555Z,11.50
2022-08-26T01:14:26.857Z,9.00
2022-08-26T01:16:53.625Z,8.15
2022-08-26T01:19:29.874Z,9.95
2022-08-26T01:22:00.228Z,10.38
2022-08-26T01:24:29.187Z,11.32
2022-08-26T01:27:02.312Z,7.95
2022-08-26T01:29:30.906Z,11.50
2022-08-26T01:31:58.216Z,8.48
2022-08-26T01:34:31.462Z,9.18
2022-08-26T01:37:13.773Z,11.23
2022-08-26T01:39:44.940Z,12.15
2022-08-26T01:42:14.675Z,9.38
2022-08-26T01:45:00.078Z,8.07
2022-08-26T01:47:31.036Z,13.80
2022-08-26T01:50:02.902Z,10.45
2022-08-26T01:52:33.673Z,11.55
2022-08-26T01:55:00.916Z,12.15
2022-08-26T01:57:28.793Z,8.32
2022-08-26T01:59:58.609Z,9.38
2022-08-26T02:02:25.911Z,11.00
2022-08-26T02:04:57.327Z,7.88
2022-08-26T02:07:26.686Z,7.90
2022-08-26T02:09:53.996Z,9.70
2022-08-26T02:12:21.737Z,11.63
2022-08-26T02:14:53.306Z,13.57
2022-08-26T02:17:25.167Z,13.23
2022-08-26T02:19:52.501Z,11.30
2022-08-26T02:22:24.661Z,13.75
2022-08-26T02:25:06.115Z,11.38
2022-08-26T02:27:35.567Z,10.45
2022-08-26T02:30:10.862Z,9.93
2022-08-26T02:32:37.849Z,8.98
2022-08-26T02:35:08.780Z,9.65
2022-08-26T02:37:36.251Z,12.00
2022-08-26T02:40:05.180Z,13.27
2022-08-26T02:42:32.373Z,19.33
2022-08-26T02:45:00.298Z,12.25
2022-08-26T02:47:28.986Z,14.30
2022-08-26T02:49:56.115Z,20.33
2022-08-26T02:52:22.822Z,27.08
2022-08-26T02:54:49.741Z,14.77
2022-08-26T03:00:15.264Z,23.67
2022-08-26T03:02:42.098Z,14.38
2022-08-26T03:05:27.117Z,15.32
2022-08-26T03:07:53.955Z,13.90
2022-08-26T03:10:22.341Z,18.52
2022-08-26T03:13:05.155Z,12.48
2022-08-26T03:15:48.386Z,11.70
2022-08-26T03:18:20.850Z,9.65
2022-08-26T03:20:47.802Z,15.68
2022-08-26T03:23:15.484Z,32.25
2022-08-26T03:25:42.297Z,13.85
2022-08-26T03:28:15.430Z,19.70
2022-08-26T03:30:46.188Z,9.98
2022-08-26T03:33:14.101Z,20.15
2022-08-26T03:38:25.903Z,12.63
2022-08-26T03:40:53.670Z,14.77
2022-08-26T03:43:38.212Z,18.67
2022-08-26T03:46:09.319Z,15.35
2022-08-26T03:48:36.115Z,13.27
2022-08-26T03:51:04.590Z,25.52
2022-08-26T03:53:31.385Z,15.95
2022-08-26T03:55:58.149Z,19.50
2022-08-26T03:58:25.393Z,16.27
2022-08-26T04:00:55.678Z,18.58
2022-08-26T04:03:41.744Z,38.30
2022-08-26T04:06:09.155Z,32.72
2022-08-26T04:08:36.397Z,22.17
2022-08-26T04:11:03.562Z,15.82
2022-08-26T04:13:30.486Z,19.83
2022-08-26T04:15:57.607Z,11.80
2022-08-26T04:18:24.365Z,14.20
2022-08-26T04:20:50.962Z,18.70
2022-08-26T04:23:17.653Z,17.38
2022-08-26T04:25:44.267Z,35.70
2022-08-26T04:28:11.033Z,23.00
2022-08-26T04:30:38.439Z,54.50
2022-08-26T04:33:12.599Z,34.28
2022-08-26T04:35:39.732Z,11.35
2022-08-26T04:38:10.884Z,12.82
2022-08-26T04:40:42.550Z,19.25
2022-08-26T04:43:14.170Z,14.13
2022-08-26T04:45:41.922Z,20.15
2022-08-26T04:48:11.029Z,22.38
2022-08-26T04:50:38.240Z,25.67
2022-08-26T04:53:09.810Z,24.98
2022-08-26T04:55:38.156Z,23.65
2022-08-26T04:58:10.236Z,13.13
2022-08-26T05:00:37.524Z,12.32
2022-08-26T05:03:04.265Z,13.73
2022-08-26T05:05:32.296Z,18.85
2022-08-26T05:08:00.536Z,20.60
2022-08-26T05:10:27.555Z,19.98
2022-08-26T05:12:54.698Z,21.23
2022-08-26T05:15:21.306Z,15.27
2022-08-26T05:17:49.375Z,17.42
2022-08-26T05:20:16.415Z,16.60
2022-08-26T05:22:44.342Z,11.80
2022-08-26T05:25:10.955Z,22.33
2022-08-26T05:27:37.776Z,15.00
2022-08-26T05:30:06.587Z,18.75
2022-08-26T05:32:33.167Z,21.10
2022-08-26T05:34:59.816Z,15.65
2022-08-26T05:37:27.314Z,18.10
2022-08-26T05:39:54.022Z,157.57
2022-08-26T05:42:20.796Z,117.28
2022-08-26T05:44:55.675Z,164.60
2022-08-26T05:47:22.996Z,127.97
2022-08-26T05:49:51.656Z,80.80
2022-08-26T05:52:19.162Z,79.35
2022-08-26T05:54:45.793Z,84.88
2022-08-26T05:57:14.736Z,69.57
2022-08-26T05:59:41.421Z,52.30
2022-08-26T06:02:08.603Z,131.15
2022-08-26T06:04:35.637Z,77.85
2022-08-26T06:07:03.288Z,65.80
2022-08-26T06:09:32.247Z,37.92
2022-08-26T06:12:01.954Z,22.48
2022-08-26T06:14:30.612Z,26.73
2022-08-26T06:16:57.584Z,19.75
2022-08-26T06:19:24.380Z,21.30
2022-08-26T06:21:54.715Z,19.83
2022-08-26T06:24:41.421Z,15.50
2022-08-26T06:27:16.945Z,18.58
2022-08-26T06:29:44.115Z,12.60
2022-08-26T06:32:11.127Z,16.27
2022-08-26T06:34:38.310Z,20.63
2022-08-26T06:37:06.479Z,16.17
2022-08-26T06:39:45.514Z,15.88
2022-08-26T06:42:12.702Z,17.20
2022-08-26T06:44:40.905Z,14.20
2022-08-26T06:47:07.883Z,19.98
2022-08-26T06:49:34.909Z,19.25
2022-08-26T06:52:01.599Z,18.48
2022-08-26T06:54:31.820Z,16.77
2022-08-26T06:56:59.193Z,15.52
2022-08-26T06:59:27.944Z,19.13
2022-08-26T07:01:55.170Z,19.40
2022-08-26T07:04:23.097Z,28.70
2022-08-26T07:06:52.838Z,16.02
2022-08-26T07:09:25.573Z,21.23
2022-08-26T07:11:53.558Z,13.93
2022-08-26T07:14:21.938Z,18.48
2022-08-26T07:16:52.109Z,25.13
2022-08-26T07:19:31.129Z,17.65
2022-08-26T07:22:03.950Z,19.92
2022-08-26T07:24:35.888Z,15.57
2022-08-26T07:27:05.859Z,16.90
2022-08-26T07:29:33.297Z,13.40
2022-08-26T07:32:00.132Z,14.68
2022-08-26T07:34:27.361Z,24.10
2022-08-26T07:36:55.347Z,16.73
2022-08-26T07:39:22.616Z,21.35
2022-08-26T07:41:49.781Z,14.48
2022-08-26T07:44:16.774Z,10.20
2022-08-26T07:46:44.096Z,15.75
2022-08-26T07:49:12.314Z,22.90
2022-08-26T07:51:39.811Z,13.10
2022-08-26T07:54:07.305Z,13.55
2022-08-26T07:56:34.517Z,11.98
2022-08-26T07:59:03.914Z,13.20
2022-08-26T08:01:40.934Z,16.45
2022-08-26T08:04:13.172Z,12.48
2022-08-26T08:06:41.789Z,16.02
2022-08-26T08:09:12.541Z,13.43
2022-08-26T08:11:41.518Z,18.25
2022-08-26T08:14:18.480Z,14.13
2022-08-26T08:16:50.991Z,12.50
2022-08-26T08:19:21.196Z,15.93
2022-08-26T08:21:51.409Z,12.02
2022-08-26T08:24:18.581Z,12.82
2022-08-26T08:26:47.622Z,12.50
2022-08-26T08:29:14.288Z,15.50
2022-08-26T08:31:58.496Z,13.43
2022-08-26T08:34:27.271Z,13.50
2022-08-26T08:36:54.623Z,18.10
2022-08-26T08:39:22.525Z,19.02
2022-08-26T08:42:04.328Z,16.38
2022-08-26T08:44:31.348Z,13.18
2022-08-26T08:47:24.709Z,12.27
2022-08-26T08:49:54.583Z,15.13
2022-08-26T08:52:37.355Z,17.77
2022-08-26T08:55:11.167Z,16.02
2022-08-26T08:58:02.810Z,11.73
2022-08-26T09:00:39.789Z,18.35
2022-08-26T09:03:33.812Z,11.95
2022-08-26T09:06:02.742Z,13.57
2022-08-26T09:08:39.060Z,13.93
2022-08-26T09:11:09.443Z,10.40
2022-08-26T09:13:39.708Z,10.80
2022-08-26T09:16:27.927Z,8.30
2022-08-26T09:19:13.182Z,10.38
2022-08-26T09:22:08.281Z,11.50
2022-08-26T09:24:42.081Z,11.27
2022-08-26T09:27:40.884Z,11.38
2022-08-26T09:30:11.460Z,14.02
2022-08-26T09:32:39.144Z,9.52
2022-08-26T09:35:11.769Z,12.05
2022-08-26T09:40:22.792Z,10.60
2022-08-26T09:43:23.097Z,6.43
2022-08-26T09:45:59.216Z,7.40
2022-08-26T09:48:36.626Z,7.03
2022-08-26T09:51:07.862Z,9.18
2022-08-26T09:53:49.676Z,10.30
2022-08-26T09:56:25.380Z,10.40
2022-08-26T09:58:53.156Z,17.27
2022-08-26T10:01:35.362Z,9.77
2022-08-26T10:04:13.419Z,4.90
2022-08-26T10:06:54.596Z,8.43
2022-08-26T10:09:23.217Z,9.40
2022-08-26T10:11:54.306Z,10.50
2022-08-26T10:14:39.392Z,11.38
2022-08-26T10:17:08.297Z,6.03
2022-08-26T10:19:51.625Z,5.45
2022-08-26T10:22:36.852Z,9.02
2022-08-26T10:25:07.000Z,15.75
2022-08-26T10:27:53.395Z,8.05
2022-08-26T10:30:23.517Z,9.23
2022-08-26T10:33:14.958Z,6.50
2022-08-26T10:35:56.656Z,8.75
2022-08-26T10:38:34.484Z,9.68
2022-08-26T10:41:22.456Z,8.15
2022-08-26T10:43:51.683Z,7.22
2022-08-26T10:46:27.415Z,12.82
2022-08-26T10:49:09.160Z,13.85
2022-08-26T10:51:46.280Z,8.43
2022-08-26T10:54:26.193Z,17.65
2022-08-26T10:56:57.470Z,15.77
2022-08-26T10:59:49.273Z,12.95
2022-08-26T11:02:37.387Z,10.80
2022-08-26T11:05:15.425Z,8.68
2022-08-26T11:07:51.480Z,9.63
2022-08-26T11:10:21.589Z,30.25
2022-08-26T11:13:00.871Z,18.77
2022-08-26T11:15:29.305Z,11.15
2022-08-26T11:18:01.959Z,9.82
2022-08-26T11:20:35.057Z,10.07
2022-08-26T11:23:35.020Z,10.80
2022-08-26T11:26:37.588Z,7.53
2022-08-26T11:29:57.198Z,13.82
2022-08-26T11:32:41.147Z,10.25
2022-08-26T11:35:21.879Z,12.90
2022-08-26T11:37:48.555Z,9.90
2022-08-26T11:40:20.425Z,7.35
2022-08-26T11:43:06.335Z,7.13
2022-08-26T11:45:37.862Z,11.50
2022-08-26T11:48:33.960Z,8.65
2022-08-26T11:51:16.015Z,10.30
2022-08-26T11:53:52.285Z,7.60
2022-08-26T11:56:27.017Z,9.18
2022-08-26T11:59:02.129Z,6.78
2022-08-26T12:01:45.475Z,19.73
2022-08-26T12:04:22.357Z,20.48
2022-08-26T12:06:51.703Z,15.35
2022-08-26T12:09:32.995Z,14.98
2022-08-26T12:12:22.064Z,14.45
2022-08-26T12:14:48.656Z,10.95
2022-08-26T12:17:26.664Z,9.95
2022-08-26T12:20:03.821Z,11.27
2022-08-26T12:22:34.901Z,7.57
2022-08-26T12:25:14.741Z,8.88
2022-08-26T12:27:53.071Z,13.02
2022-08-26T12:30:30.320Z,15.98
2022-08-26T12:33:22.972Z,11.68
2022-08-26T12:35:57.006Z,12.85
2022-08-26T12:38:27.130Z,11.40
2022-08-26T12:40:56.169Z,8.43
2022-08-26T12:43:44.253Z,16.95
2022-08-26T12:46:18.119Z,10.75
2022-08-26T12:49:05.309Z,15.43
2022-08-26T12:51:33.179Z,6.65
2022-08-26T12:54:00.515Z,6.80
2022-08-26T12:56:47.332Z,8.18
2022-08-26T12:59:25.363Z,15.15
2022-08-26T13:01:53.716Z,10.95
2022-08-26T13:05:00.582Z,11.77
2022-08-26T13:07:31.188Z,11.63
2022-08-26T13:10:00.044Z,8.20
2022-08-26T13:12:41.146Z,22.45
2022-08-26T13:15:11.318Z,9.63
2022-08-26T13:17:39.471Z,7.70
2022-08-26T13:20:10.659Z,10.43
2022-08-26T13:22:38.320Z,8.85
2022-08-26T13:25:05.535Z,7.20
2022-08-26T13:27:35.878Z,13.68
2022-08-26T13:30:04.647Z,5.28
2022-08-26T13:32:32.127Z,13.05
2022-08-26T13:34:59.093Z,7.65
2022-08-26T13:37:34.409Z,10.07
2022-08-26T13:40:05.254Z,7.32
2022-08-26T13:42:36.032Z,8.38
2022-08-26T13:45:04.011Z,9.38
2022-08-26T13:47:30.886Z,7.75
2022-08-26T13:49:58.084Z,10.65
2022-08-26T13:52:30.235Z,7.70
2022-08-26T13:55:03.709Z,9.55
2022-08-26T13:57:30.734Z,6.53
2022-08-26T14:00:00.622Z,8.15
2022-08-26T14:02:31.428Z,4.88
2022-08-26T14:05:07.390Z,10.32
2022-08-26T14:07:49.746Z,6.63
2022-08-26T14:13:11.608Z,8.27
2022-08-26T14:15:38.521Z,12.95
2022-08-26T14:20:51.107Z,13.50
2022-08-26T14:23:26.224Z,8.00
2022-08-26T14:25:56.480Z,14.55
2022-08-26T14:28:23.247Z,13.18
2022-08-26T14:30:56.127Z,15.32
2022-08-26T14:33:26.252Z,10.07
2022-08-26T14:35:53.023Z,19.83
2022-08-26T14:38:19.905Z,11.50
2022-08-26T14:40:46.690Z,10.85
2022-08-26T14:43:17.704Z,12.00
2022-08-26T14:45:45.233Z,6.80
2022-08-26T14:48:12.623Z,7.95
2022-08-26T14:50:39.369Z,10.05
2022-08-26T14:53:28.939Z,14.23
2022-08-26T14:55:55.625Z,10.25
2022-08-26T14:58:22.270Z,10.25
2022-08-26T15:00:48.902Z,11.93
2022-08-26T15:04:32.320Z,6.60
2022-08-26T15:07:00.470Z,10.07
2022-08-26T15:09:29.143Z,9.55
2022-08-26T15:11:56.498Z,9.05
2022-08-26T15:14:24.438Z,11.75
2022-08-26T15:16:54.611Z,7.97
2022-08-26T15:19:22.743Z,7.43
2022-08-26T15:21:50.036Z,6.38
2022-08-26T15:24:20.557Z,12.93
2022-08-26T15:26:48.789Z,6.03
2022-08-26T15:29:19.392Z,11.07
2022-08-26T15:31:47.644Z,14.68
2022-08-26T15:34:16.909Z,15.20
2022-08-26T15:36:51.296Z,14.07
2022-08-26T15:39:19.650Z,21.95
2022-08-26T15:41:47.560Z,17.38
2022-08-26T15:44:17.372Z,15.13
2022-08-26T15:46:44.980Z,14.40
2022-08-26T15:49:12.032Z,11.05
2022-08-26T15:51:48.200Z,8.70
2022-08-26T15:54:17.208Z,10.25
2022-08-26T15:56:45.186Z,11.20
2022-08-26T15:59:12.210Z,20.42
2022-08-26T16:01:39.657Z,11.35
2022-08-26T16:04:06.918Z,16.20
2022-08-26T16:06:36.723Z,8.07
2022-08-26T16:09:05.024Z,10.73
2022-08-26T16:11:32.000Z,8.50
2022-08-26T16:13:58.741Z,9.85
2022-08-26T16:16:26.561Z,14.75
2022-08-26T16:18:59.839Z,15.02
2022-08-26T16:21:28.705Z,6.97
2022-08-26T16:23:56.244Z,9.75
2022-08-26T16:26:26.620Z,15.95
2022-08-26T16:29:15.752Z,9.35
2022-08-26T16:31:42.844Z,8.30
2022-08-26T16:36:53.917Z,8.10
2022-08-26T16:40:14.835Z,10.65
2022-08-26T16:42:41.589Z,10.45
2022-08-26T16:45:08.876Z,13.23
2022-08-26T16:47:44.119Z,16.17
2022-08-26T16:50:18.555Z,7.40
2022-08-26T16:52:45.408Z,13.13
2022-08-26T16:55:15.360Z,15.70
2022-08-26T16:57:47.025Z,18.65
2022-08-26T17:00:31.000Z,13.70
2022-08-26T17:02:59.832Z,13.48
2022-08-26T17:05:27.934Z,12.50
2022-08-26T17:07:57.119Z,10.10
2022-08-26T17:10:25.198Z,13.95
2022-08-26T17:12:53.013Z,13.23
2022-08-26T17:15:20.538Z,5.38
2022-08-26T17:17:49.864Z,15.77
2022-08-26T17:20:23.389Z,14.43
2022-08-26T17:22:52.858Z,8.02
2022-08-26T17:25:22.055Z,11.15
2022-08-26T17:27:48.915Z,10.80
2022-08-26T17:30:16.633Z,16.52
2022-08-26T17:32:44.092Z,12.88
2022-08-26T17:35:13.009Z,13.60
2022-08-26T17:37:42.941Z,10.38
2022-08-26T17:40:12.991Z,8.18
2022-08-26T17:42:40.816Z,10.88
2022-08-26T17:45:08.870Z,21.65
2022-08-26T17:47:45.606Z,11.70
2022-08-26T17:50:17.030Z,14.60
2022-08-26T17:52:54.385Z,9.60
2022-08-26T17:55:21.422Z,15.50
2022-08-26T17:57:53.566Z,13.93
2022-08-26T18:00:23.742Z,16.92
2022-08-26T18:02:50.526Z,26.30
2022-08-26T18:05:18.235Z,23.05
2022-08-26T18:07:46.027Z,21.42
2022-08-26T18:10:15.766Z,24.90
2022-08-26T18:12:46.706Z,15.95
2022-08-26T18:15:19.118Z,17.88
2022-08-26T18:17:46.124Z,15.70
2022-08-26T18:20:19.081Z,17.58
2022-08-26T18:22:47.565Z,17.55
2022-08-26T18:25:15.671Z,22.13
2022-08-26T18:27:45.734Z,31.73
2022-08-26T18:30:20.048Z,24.35
2022-08-26T18:32:53.443Z,26.10
2022-08-26T18:35:21.661Z,26.63
2022-08-26T18:37:48.725Z,23.70
2022-08-26T18:40:16.610Z,32.88
2022-08-26T18:42:44.153Z,43.63
2022-08-26T18:45:16.121Z,26.27
2022-08-26T18:47:44.176Z,32.92
2022-08-26T18:50:11.272Z,31.98
2022-08-26T18:52:38.225Z,31.83
2022-08-26T18:55:07.177Z,34.25
2022-08-26T18:57:37.253Z,30.13
2022-08-26T19:00:06.239Z,28.15
2022-08-26T19:02:33.395Z,51.80
2022-08-26T19:05:00.486Z,27.17
2022-08-26T19:07:27.136Z,29.23
2022-08-26T19:09:54.234Z,19.92
2022-08-26T19:12:24.207Z,15.43
2022-08-26T19:14:53.774Z,20.83
2022-08-26T19:17:20.667Z,18.88
2022-08-26T19:19:49.855Z,18.70
2022-08-26T19:22:16.781Z,22.75
2022-08-26T19:24:43.595Z,21.27
2022-08-26T19:27:14.569Z,21.35
2022-08-26T19:29:42.239Z,26.80
2022-08-26T19:32:09.003Z,21.88
2022-08-26T19:34:36.648Z,20.02
2022-08-26T19:37:03.347Z,18.45
2022-08-26T19:39:30.059Z,23.27
2022-08-26T19:41:56.896Z,32.65
2022-08-26T19:44:42.628Z,16.52
2022-08-26T19:47:11.244Z,14.70
2022-08-26T19:49:38.605Z,19.75
2022-08-26T19:52:06.117Z,18.13
2022-08-26T19:54:33.502Z,19.27
2022-08-26T19:57:00.507Z,21.00
2022-08-26T19:59:27.350Z,25.73
2022-08-26T20:02:01.399Z,20.98
2022-08-26T20:04:30.581Z,19.25
2022-08-26T20:07:00.471Z,15.18
2022-08-26T20:09:28.698Z,18.13
2022-08-26T20:11:56.793Z,17.75
2022-08-26T20:14:27.625Z,19.30
2022-08-26T20:16:54.534Z,14.73
2022-08-26T20:19:43.057Z,15.82
2022-08-26T20:22:15.487Z,22.75
2022-08-26T20:24:42.412Z,18.40
2022-08-26T20:27:09.782Z,13.85
2022-08-26T20:29:40.813Z,13.80
2022-08-26T20:32:08.045Z,21.55
2022-08-26T20:34:36.273Z,16.50
2022-08-26T20:37:03.795Z,15.27
2022-08-26T20:39:30.554Z,14.45
2022-08-26T20:41:58.402Z,19.95
2022-08-26T20:44:26.011Z,14.18
2022-08-26T20:46:53.219Z,12.05
2022-08-26T20:49:20.061Z,11.75
2022-08-26T20:51:51.445Z,19.00
2022-08-26T20:54:22.122Z,36.03
2022-08-26T20:56:50.972Z,20.40
2022-08-26T20:59:18.210Z,28.75
2022-08-26T21:01:45.160Z,18.92
2022-08-26T21:04:15.821Z,15.55
2022-08-26T21:06:48.977Z,14.30
2022-08-26T21:09:21.722Z,17.20
2022-08-26T21:11:48.638Z,14.93
2022-08-26T21:14:16.996Z,14.75
2022-08-26T21:16:45.293Z,24.48
2022-08-26T21:19:15.165Z,21.40
2022-08-26T21:21:42.259Z,23.23
2022-08-26T21:24:09.409Z,20.48
2022-08-26T21:26:36.594Z,22.52
2022-08-26T21:29:04.047Z,21.00
2022-08-26T21:31:32.243Z,16.05
2022-08-26T21:33:59.830Z,15.27
2022-08-26T21:36:26.923Z,11.60
2022-08-26T21:38:58.724Z,11.32
2022-08-26T21:41:26.693Z,12.43
2022-08-26T21:43:58.039Z,14.68
2022-08-26T21:46:26.174Z,14.25
2022-08-26T21:49:01.909Z,14.18
2022-08-26T21:51:32.244Z,16.58
2022-08-26T21:54:00.700Z,14.73
2022-08-26T21:56:30.075Z,13.13
2022-08-26T21:59:00.462Z,15.73
2022-08-26T22:01:32.040Z,15.13
2022-08-26T22:03:59.185Z,13.32
2022-08-26T22:06:27.441Z,15.75
2022-08-26T22:08:55.392Z,15.82
2022-08-26T22:11:28.143Z,16.10
2022-08-26T22:13:56.858Z,15.15
2022-08-26T22:16:24.507Z,13.90
2022-08-26T22:18:51.378Z,19.88
2022-08-26T22:21:21.255Z,14.60
2022-08-26T22:23:48.027Z,20.95
2022-08-26T22:26:25.327Z,20.88
2022-08-26T22:28:58.531Z,15.73
2022-08-26T22:31:38.001Z,27.05
2022-08-26T22:34:11.168Z,20.10
2022-08-26T22:36:43.745Z,16.83
2022-08-26T22:39:12.879Z,16.85
2022-08-26T22:41:40.187Z,20.52
2022-08-26T22:44:07.608Z,17.63
2022-08-26T22:46:36.801Z,23.55
2022-08-26T22:49:04.904Z,22.33
2022-08-26T22:51:32.239Z,13.07
2022-08-26T22:53:59.196Z,22.98
2022-08-26T22:56:25.841Z,19.70
2022-08-26T22:58:52.756Z,13.60
2022-08-26T23:01:19.860Z,13.88
2022-08-26T23:03:46.756Z,15.75
2022-08-26T23:06:13.638Z,18.70
2022-08-26T23:08:41.898Z,15.60
2022-08-26T23:11:10.287Z,14.88
2022-08-26T23:13:37.645Z,13.45
2022-08-26T23:16:09.305Z,12.30
2022-08-26T23:18:36.700Z,12.00
2022-08-26T23:21:03.582Z,12.13
2022-08-26T23:23:31.195Z,14.90
2022-08-26T23:25:58.485Z,14.63
2022-08-26T23:28:26.555Z,12.23
2022-08-26T23:30:54.042Z,12.85
2022-08-26T23:33:21.218Z,11.13
2022-08-26T23:35:47.981Z,12.10
2022-08-26T23:38:16.179Z,15.38
2022-08-26T23:40:43.005Z,14.35
2022-08-26T23:43:11.625Z,11.25
2022-08-26T23:45:38.826Z,12.88
2022-08-26T23:48:06.696Z,12.27
2022-08-26T23:50:52.592Z,9.82
2022-08-26T23:53:22.022Z,13.20
2022-08-26T23:55:52.362Z,13.68
2022-08-26T23:58:21.157Z,13.88
